.
WxDataArchive / Data Records for 2009-02-06
2009-02-05 February 2009 2009-02-07

Data Records for Friday, 06 February 2009

Time	Temp	Chill	HIndex	Humid	Dewpt	 Wind 	HiWind	WindDir	Rain 	Barom 
-----	----	-----	------	-----	-----	------	------	-------	-----	----- 
00:00	11.9	11.9	11.9	69	3.7	0	0	---	0.00	30.310 
00:05	11.9	11.9	11.9	69	3.7	0	0	---	0.00	30.308 
00:10	11.9	11.9	11.9	69	3.7	0	0	---	0.00	30.306 
00:15	11.6	11.6	11.6	69	3.4	0	0	---	0.00	30.300 
00:20	11.6	11.6	11.6	70	3.7	0	0	---	0.00	30.297 
00:25	11.4	11.4	11.4	70	3.5	0	0	---	0.00	30.297 
00:30	11.2	11.2	11.2	70	3.4	0	0	---	0.00	30.297 
00:35	11.1	11.1	11.1	70	3.3	0	0	---	0.00	30.295 
00:40	10.9	10.9	10.9	71	3.4	0	0	---	0.00	30.295 
00:45	10.7	10.7	10.7	72	3.5	0	0	---	0.00	30.293 
00:50	10.7	10.7	10.7	72	3.5	0	0	---	0.00	30.294 
00:55	10.5	10.5	10.5	72	3.3	0	0	---	0.00	30.292 
01:00	10.2	10.2	10.2	72	3.0	0	0	---	0.00	30.287 
01:05	10.2	10.2	10.2	73	3.3	0	0	---	0.00	30.286 
01:10	10.0	10.0	10.0	73	3.1	0	0	---	0.00	30.283 
01:15	9.9	9.9	9.9	73	3.0	0	0	---	0.00	30.282 
01:20	9.5	9.5	9.5	73	2.6	0	0	---	0.00	30.282 
01:25	9.3	9.3	9.3	73	2.4	0	0	---	0.00	30.280 
01:30	9.2	9.2	9.2	74	2.6	0	0	---	0.00	30.279 
01:35	8.8	8.8	8.8	74	2.2	0	0	---	0.00	30.279 
01:40	8.4	8.4	8.4	74	1.8	0	0	---	0.00	30.279 
01:45	8.3	8.3	8.3	74	1.8	0	0	---	0.00	30.280 
01:50	8.3	8.3	8.3	76	2.3	0	0	---	0.00	30.273 
01:55	8.3	8.3	8.3	76	2.3	0	0	---	0.00	30.275 
02:00	8.3	8.3	8.3	76	2.3	0	0	---	0.00	30.272 
02:05	8.3	8.3	8.3	76	2.3	0	0	---	0.00	30.269 
02:10	8.3	8.3	8.3	77	2.6	0	0	---	0.00	30.270 
02:15	8.1	8.1	8.1	77	2.4	0	0	---	0.00	30.272 
02:20	8.1	8.1	8.1	77	2.4	0	0	---	0.00	30.271 
02:25	8.1	8.1	8.1	77	2.4	0	0	---	0.00	30.271 
02:30	8.3	8.3	8.3	78	2.9	0	0	---	0.00	30.271 
02:35	8.1	8.1	8.1	78	2.7	0	0	---	0.00	30.270 
02:40	8.1	8.1	8.1	77	2.4	0	0	---	0.00	30.271 
02:45	8.1	8.1	8.1	77	2.4	0	0	---	0.00	30.271 
02:50	7.9	7.9	7.9	77	2.2	0	0	---	0.00	30.271 
02:55	7.7	7.7	7.7	77	2.0	0	0	---	0.00	30.269 
03:00	7.7	7.7	7.7	77	2.0	0	0	---	0.00	30.268 
03:05	7.6	7.6	7.6	78	2.2	0	0	---	0.00	30.267 
03:10	7.6	7.6	7.6	78	2.2	0	0	---	0.00	30.267 
03:15	7.4	7.4	7.4	78	2.0	0	0	---	0.00	30.267 
03:20	7.4	7.4	7.4	78	2.0	0	0	---	0.00	30.267 
03:25	7.4	7.4	7.4	79	2.3	0	0	---	0.00	30.266 
03:30	7.2	7.2	7.2	79	2.1	0	0	---	0.00	30.266 
03:35	7.2	7.2	7.2	79	2.1	0	0	---	0.00	30.267 
03:40	7.2	7.2	7.2	79	2.1	0	0	---	0.00	30.268 
03:45	7.2	7.2	7.2	79	2.1	0	0	---	0.00	30.268 
03:50	7.2	7.2	7.2	79	2.1	0	0	---	0.00	30.270 
03:55	7.0	7.0	7.0	79	1.9	0	0	---	0.00	30.270 
04:00	7.0	7.0	7.0	79	1.9	0	0	---	0.00	30.270 
04:05	7.0	7.0	7.0	79	1.9	0	0	---	0.00	30.271 
04:10	7.0	7.0	7.0	79	1.9	0	0	---	0.00	30.270 
04:15	7.0	7.0	7.0	79	1.9	0	0	---	0.00	30.272 
04:20	6.9	6.9	6.9	79	1.8	0	0	---	0.00	30.272 
04:25	6.9	6.9	6.9	79	1.8	0	0	---	0.00	30.276 
04:30	6.7	6.7	6.7	79	1.6	0	0	---	0.00	30.271 
04:35	6.7	6.7	6.7	80	1.9	0	0	---	0.00	30.271 
04:40	6.7	6.7	6.7	79	1.6	0	0	---	0.00	30.271 
04:45	6.5	6.5	6.5	79	1.4	0	0	---	0.00	30.269 
04:50	6.5	6.5	6.5	80	1.7	0	0	---	0.00	30.268 
04:55	6.7	6.7	6.7	80	1.9	0	0	---	0.00	30.268 
05:00	6.5	6.5	6.5	79	1.4	0	0	---	0.00	30.271 
05:05	6.5	6.5	6.5	79	1.4	0	0	---	0.00	30.272 
05:10	6.3	6.3	6.3	79	1.2	0	0	---	0.00	30.276 
05:15	6.1	6.1	6.1	80	1.3	0	0	---	0.00	30.276 
05:20	6.0	6.0	6.0	80	1.2	0	0	---	0.00	30.276 
05:25	6.0	6.0	6.0	80	1.2	0	0	---	0.00	30.275 
05:30	6.0	6.0	6.0	80	1.2	0	0	---	0.00	30.275 
05:35	6.0	6.0	6.0	80	1.2	0	0	---	0.00	30.273 
05:40	5.8	5.8	5.8	81	1.3	0	0	---	0.00	30.274 
05:45	5.8	5.8	5.8	81	1.3	0	0	---	0.00	30.274 
05:50	5.6	5.6	5.6	81	1.1	0	0	---	0.00	30.276 
05:55	5.4	5.4	5.4	81	0.9	0	0	---	0.00	30.276 
06:00	5.4	5.4	5.4	81	0.9	0	0	---	0.00	30.279 
06:05	5.4	5.4	5.4	81	0.9	0	0	---	0.00	30.281 
06:10	5.4	5.4	5.4	81	0.9	0	0	---	0.00	30.283 
06:15	5.4	5.4	5.4	81	0.9	0	0	---	0.00	30.284 
06:20	5.2	5.2	5.2	81	0.7	0	0	---	0.00	30.284 
06:25	5.2	5.2	5.2	81	0.7	0	0	---	0.00	30.284 
06:30	5.2	5.2	5.2	81	0.7	0	0	---	0.00	30.285 
06:35	5.4	5.4	5.4	82	1.1	0	0	---	0.00	30.285 
06:40	5.4	5.4	5.4	82	1.1	0	0	---	0.00	30.285 
06:45	5.2	5.2	5.2	82	0.9	0	0	---	0.00	30.285 
06:50	5.2	5.2	5.2	82	0.9	0	0	---	0.00	30.287 
06:55	5.2	5.2	5.2	82	0.9	0	0	---	0.00	30.286 
07:00	5.2	5.2	5.2	82	0.9	0	0	---	0.00	30.286 
07:05	5.2	5.2	5.2	82	0.9	0	0	---	0.00	30.285 
07:10	5.0	5.0	5.0	82	0.7	0	0	---	0.00	30.285 
07:15	5.0	5.0	5.0	82	0.7	0	0	---	0.00	30.286 
07:20	5.0	5.0	5.0	82	0.7	0	0	---	0.00	30.286 
07:25	5.0	5.0	5.0	83	1.0	0	0	---	0.00	30.286 
07:30	5.0	5.0	5.0	83	1.0	0	0	---	0.00	30.285 
07:35	4.8	4.8	4.8	82	0.5	0	0	---	0.00	30.285 
07:40	4.7	4.7	4.7	82	0.4	0	0	---	0.00	30.285 
07:45	4.7	4.7	4.7	82	0.4	0	0	---	0.00	30.285 
07:50	4.5	4.5	4.5	82	0.2	0	0	---	0.00	30.286 
07:55	4.7	4.7	4.7	83	0.7	0	0	---	0.00	30.286 
08:00	4.7	4.7	4.7	83	0.7	0	0	---	0.00	30.286 
08:05	4.8	4.8	4.8	83	0.8	0	0	---	0.00	30.286 
08:10	5.0	5.0	5.0	83	1.0	0	0	---	0.00	30.286 
08:15	5.2	5.2	5.2	83	1.2	0	0	---	0.00	30.287 
08:20	5.6	5.6	5.6	84	1.8	0	0	---	0.00	30.287 
08:25	6.0	6.0	6.0	84	2.2	0	0	---	0.00	30.286 
08:30	6.7	6.7	6.7	85	3.2	0	0	---	0.00	30.286 
08:35	8.1	8.1	8.1	87	5.0	0	0	---	0.00	30.285 
08:40	9.7	9.7	9.7	87	6.6	0	0	---	0.00	30.283 
08:45	10.9	10.9	10.9	85	7.3	0	0	---	0.00	30.283 
08:50	12.3	12.3	12.3	83	8.1	0	0	---	0.00	30.285 
08:55	13.8	13.8	13.8	79	8.5	0	0	---	0.00	30.284 
09:00	15.2	15.2	15.2	77	9.3	0	0	---	0.00	30.284 
09:05	16.7	16.7	16.7	73	9.6	0	1	248	0.00	30.284 
09:10	18.0	18.0	18.0	68	9.2	0	1	248	0.00	30.283 
09:15	19.1	19.1	19.1	65	9.3	0	1	248	0.00	30.279 
09:20	19.9	19.9	19.9	63	9.4	0	1	248	0.00	30.277 
09:25	20.3	20.3	20.3	62	9.4	0	3	248	0.00	30.280 
09:30	20.8	20.8	20.8	60	9.1	1	6	248	0.00	30.279 
09:35	21.4	21.4	21.4	59	9.3	1	2	270	0.00	30.278 
09:40	22.2	22.2	22.2	58	9.7	1	3	248	0.00	30.274 
09:45	22.9	22.9	22.9	57	10.0	1	3	248	0.00	30.277 
09:50	23.6	23.6	23.6	57	10.6	1	3	248	0.00	30.280 
09:55	24.2	24.2	24.2	55	10.4	1	5	248	0.00	30.279 
10:00	24.8	24.8	24.8	55	11.0	1	3	248	0.00	30.282 
10:05	25.4	25.4	25.4	54	11.1	1	4	248	0.00	30.284 
10:10	25.8	25.8	25.8	54	11.5	1	4	248	0.00	30.284 
10:15	26.4	26.4	26.4	54	12.0	1	3	248	0.00	30.284 
10:20	27.2	27.2	27.2	53	12.4	1	3	248	0.00	30.283 
10:25	27.6	27.6	27.6	53	12.7	1	5	248	0.00	30.281 
10:30	27.9	27.9	27.9	52	12.6	1	7	248	0.00	30.281 
10:35	28.2	28.2	28.2	53	13.3	1	3	270	0.00	30.281 
10:40	28.5	28.5	28.5	53	13.6	1	3	270	0.00	30.280 
10:45	28.8	28.8	28.8	52	13.4	0	2	270	0.00	30.280 
10:50	29.0	29.0	29.0	52	13.6	1	3	225	0.00	30.279 
10:55	29.1	29.1	29.1	52	13.7	1	6	248	0.00	30.277 
11:00	29.4	29.4	29.4	53	14.4	1	5	248	0.00	30.280 
11:05	29.5	29.5	29.5	52	14.1	1	4	248	0.00	30.283 
11:10	29.7	29.7	29.7	52	14.3	1	5	248	0.00	30.282 
11:15	30.0	30.0	30.0	52	14.5	1	5	248	0.01	30.282 
11:20	30.3	30.3	30.3	52	14.8	0	3	248	0.00	30.281 
11:25	30.4	30.4	30.4	52	14.9	0	2	248	0.00	30.281 
11:30	30.9	30.9	30.9	52	15.4	1	4	248	0.00	30.281 
11:35	31.2	31.2	31.2	52	15.6	1	3	248	0.00	30.280 
11:40	31.5	31.5	31.5	52	15.9	0	3	248	0.00	30.281 
11:45	31.6	31.6	31.6	52	16.0	0	2	248	0.00	30.279 
11:50	31.9	31.9	31.9	52	16.3	0	2	248	0.00	30.278 
11:55	32.1	32.1	32.1	52	16.5	1	3	90	0.00	30.278 
12:00	32.4	32.4	32.4	52	16.8	1	3	112	0.00	30.276 
12:05	32.5	32.5	32.5	51	16.4	0	2	180	0.00	30.276 
12:10	32.8	32.8	32.8	50	16.2	0	1	292	0.00	30.274 
12:15	32.9	32.9	32.9	52	17.2	0	1	292	0.00	30.272 
12:20	33.2	33.2	33.2	51	17.1	0	3	292	0.00	30.267 
12:25	33.4	33.4	33.4	50	16.8	1	3	112	0.00	30.265 
12:30	33.5	33.5	33.5	51	17.3	1	2	112	0.00	30.260 
12:35	33.7	33.7	33.7	50	17.1	1	3	112	0.00	30.259 
12:40	33.8	33.8	33.8	50	17.2	0	2	90	0.00	30.259 
12:45	34.0	34.0	34.0	50	17.3	1	2	90	0.00	30.257 
12:50	33.8	33.8	33.8	51	17.6	1	2	90	0.00	30.250 
12:55	34.0	34.0	34.0	51	17.8	1	3	112	0.00	30.254 
13:00	34.1	34.1	34.1	51	17.9	1	3	112	0.00	30.252 
13:05	34.3	34.3	34.3	50	17.6	1	3	112	0.00	30.250 
13:10	34.1	34.1	34.1	51	17.9	2	4	112	0.00	30.249 
13:15	33.8	33.8	33.8	52	18.1	1	3	112	0.00	30.248 
13:20	33.8	33.8	33.8	52	18.1	1	3	112	0.00	30.248 
13:25	34.1	34.1	34.1	53	18.8	1	3	112	0.00	30.248 
13:30	34.3	34.3	34.3	52	18.5	1	3	112	0.00	30.247 
13:35	34.4	34.4	34.4	53	19.1	1	3	112	0.00	30.241 
13:40	34.6	34.6	34.6	52	18.8	1	4	112	0.00	30.235 
13:45	34.6	34.6	34.6	53	19.2	2	4	112	0.00	30.233 
13:50	34.6	34.6	34.6	53	19.2	2	5	112	0.00	30.232 
13:55	34.6	34.6	34.6	54	19.7	1	3	112	0.00	30.227 
14:00	34.9	34.9	34.9	54	20.0	1	5	112	0.00	30.222 
14:05	35.0	35.0	35.0	54	20.1	1	3	90	0.00	30.221 
14:10	35.0	35.0	35.0	55	20.5	2	4	135	0.00	30.218 
14:15	34.7	34.7	34.7	55	20.2	2	5	112	0.00	30.216 
14:20	34.4	34.4	34.4	56	20.3	2	5	112	0.00	30.214 
14:25	34.3	34.3	34.3	56	20.3	2	4	112	0.00	30.214 
14:30	34.4	34.4	34.4	56	20.3	1	4	112	0.00	30.214 
14:35	34.6	34.6	34.6	56	20.5	1	5	90	0.00	30.211 
14:40	34.4	34.4	34.4	58	21.2	3	5	90	0.00	30.206 
14:45	34.6	34.6	34.6	58	21.4	2	5	112	0.00	30.206 
14:50	34.7	34.7	34.7	58	21.5	2	5	90	0.00	30.208 
14:55	35.0	35.0	35.0	58	21.7	1	5	112	0.00	30.209 
15:00	35.3	35.3	35.3	57	21.6	2	6	90	0.00	30.212 
15:05	35.5	35.5	35.5	57	21.8	2	4	90	0.00	30.213 
15:10	35.6	35.6	35.6	57	21.9	2	4	90	0.00	30.214 
15:15	35.8	35.8	35.8	58	22.5	2	4	112	0.00	30.216 
15:20	35.9	35.9	35.9	57	22.2	1	3	135	0.00	30.216 
15:25	36.2	36.2	36.2	57	22.5	1	4	135	0.00	30.217 
15:30	36.3	36.3	36.3	57	22.5	1	4	112	0.00	30.218 
15:35	36.5	36.5	36.5	57	22.7	1	4	135	0.00	30.215 
15:40	36.9	36.9	36.9	57	23.1	1	5	90	0.00	30.216 
15:45	37.0	37.0	37.0	56	22.8	1	5	112	0.00	30.217 
15:50	37.3	37.3	37.3	56	23.1	1	2	112	0.00	30.217 
15:55	37.3	37.3	37.3	55	22.6	1	4	112	0.00	30.218 
16:00	37.5	37.5	37.5	56	23.2	1	3	135	0.00	30.217 
16:05	37.5	37.5	37.5	56	23.2	1	3	112	0.00	30.216 
16:10	37.3	37.3	37.3	57	23.5	1	4	112	0.00	30.215 
16:15	37.5	37.5	37.5	57	23.7	1	3	112	0.00	30.215 
16:20	37.6	37.6	37.6	56	23.3	1	4	112	0.00	30.213 
16:25	37.5	37.5	37.5	56	23.2	1	3	90	0.00	30.211 
16:30	37.5	37.5	37.5	57	23.7	1	3	135	0.00	30.209 
16:35	37.2	37.2	37.2	58	23.8	1	5	112	0.00	30.207 
16:40	36.8	36.8	36.8	58	23.4	1	4	112	0.00	30.207 
16:45	36.5	36.5	36.5	58	23.1	1	3	112	0.00	30.206 
16:50	36.5	36.5	36.5	58	23.1	1	2	90	0.00	30.206 
16:55	36.3	36.3	36.3	59	23.4	1	4	135	0.00	30.212 
17:00	36.2	36.2	36.2	60	23.7	1	3	112	0.00	30.211 
17:05	36.2	36.2	36.2	61	24.1	1	2	135	0.00	30.208 
17:10	36.0	36.0	36.0	61	23.9	0	2	135	0.00	30.204 
17:15	35.8	35.8	35.8	62	24.1	1	3	112	0.00	30.202 
17:20	35.6	35.6	35.6	62	23.9	1	3	135	0.00	30.201 
17:25	35.5	35.5	35.5	62	23.8	1	3	135	0.00	30.201 
17:30	35.3	35.3	35.3	63	24.0	1	3	135	0.00	30.202 
17:35	35.0	35.0	35.0	63	23.7	0	2	135	0.00	30.201 
17:40	34.9	34.9	34.9	64	24.0	0	1	112	0.00	30.198 
17:45	34.6	34.6	34.6	65	24.1	0	2	112	0.00	30.195 
17:50	34.3	34.3	34.3	65	23.8	0	1	112	0.00	30.193 
17:55	34.0	34.0	34.0	66	23.9	0	2	112	0.00	30.191 
18:00	33.7	33.7	33.7	67	23.9	0	2	112	0.00	30.188 
18:05	33.5	33.5	33.5	67	23.7	0	0	---	0.00	30.189 
18:10	33.2	33.2	33.2	68	23.8	0	0	---	0.00	30.189 
18:15	33.1	33.1	33.1	68	23.7	0	0	---	0.00	30.189 
18:20	32.7	32.7	32.7	69	23.7	0	1	112	0.00	30.189 
18:25	32.4	32.4	32.4	71	24.1	0	1	112	0.00	30.188 
18:30	32.2	32.2	32.2	71	23.9	0	1	112	0.00	30.189 
18:35	32.1	32.1	32.1	72	24.1	0	2	112	0.00	30.188 
18:40	31.9	31.9	31.9	72	23.9	0	1	112	0.00	30.187 
18:45	31.9	31.9	31.9	73	24.2	0	1	112	0.00	30.188 
18:50	31.8	31.8	31.8	73	24.1	0	2	112	0.00	30.190 
18:55	31.6	31.6	31.6	73	24.0	1	2	112	0.00	30.189 
19:00	31.5	31.5	31.5	73	23.9	0	2	112	0.00	30.189 
19:05	31.3	31.3	31.3	74	24.0	0	1	112	0.00	30.189 
19:10	31.2	31.2	31.2	74	23.9	0	1	112	0.00	30.187 
19:15	31.0	31.0	31.0	75	24.0	0	1	112	0.00	30.186 
19:20	30.9	30.9	30.9	75	23.9	0	1	112	0.00	30.186 
19:25	30.9	30.9	30.9	75	23.9	0	1	112	0.00	30.183 
19:30	30.7	30.7	30.7	76	24.0	0	1	112	0.00	30.182 
19:35	30.7	30.7	30.7	76	24.0	0	1	112	0.00	30.178 
19:40	30.6	30.6	30.6	76	24.0	0	1	112	0.00	30.177 
19:45	30.4	30.4	30.4	76	23.8	0	0	---	0.00	30.178 
19:50	30.3	30.3	30.3	77	24.0	0	1	112	0.00	30.177 
19:55	30.3	30.3	30.3	77	24.0	0	1	112	0.00	30.177 
20:00	30.3	30.3	30.3	77	24.0	0	1	112	0.00	30.175 
20:05	30.3	30.3	30.3	77	24.0	0	1	112	0.00	30.165 
20:10	30.3	30.3	30.3	77	24.0	0	1	112	0.00	30.163 
20:15	30.3	30.3	30.3	77	24.0	0	1	112	0.00	30.161 
20:20	30.1	30.1	30.1	77	23.8	0	0	---	0.00	30.160 
20:25	30.0	30.0	30.0	77	23.7	0	0	---	0.00	30.158 
20:30	30.0	30.0	30.0	77	23.7	0	1	112	0.00	30.157 
20:35	29.8	29.8	29.8	77	23.5	0	0	---	0.00	30.155 
20:40	29.7	29.7	29.7	77	23.4	0	0	---	0.00	30.155 
20:45	29.7	29.7	29.7	77	23.4	0	0	---	0.00	30.153 
20:50	29.7	29.7	29.7	77	23.4	0	0	---	0.00	30.152 
20:55	29.5	29.5	29.5	78	23.5	0	1	112	0.00	30.151 
21:00	29.5	29.5	29.5	78	23.5	0	1	112	0.00	30.145 
21:05	29.5	29.5	29.5	78	23.5	0	1	112	0.00	30.132 
21:10	29.7	29.7	29.7	78	23.7	0	1	112	0.00	30.131 
21:15	29.8	29.8	29.8	78	23.8	0	0	---	0.00	30.127 
21:20	30.0	30.0	30.0	78	24.0	0	0	---	0.00	30.126 
21:25	30.0	30.0	30.0	77	23.7	0	1	112	0.00	30.122 
21:30	30.1	30.1	30.1	78	24.1	0	0	---	0.00	30.118 
21:35	30.1	30.1	30.1	78	24.1	0	1	112	0.00	30.114 
21:40	30.4	30.4	30.4	78	24.4	0	1	112	0.00	30.112 
21:45	30.7	30.7	30.7	78	24.7	0	1	112	0.00	30.109 
21:50	31.0	31.0	31.0	78	25.0	0	1	112	0.00	30.109 
21:55	31.3	31.3	31.3	77	24.9	0	1	112	0.00	30.108 
22:00	31.6	31.6	31.6	77	25.2	0	1	112	0.00	30.107 
22:05	31.8	31.8	31.8	77	25.4	0	1	112	0.00	30.101 
22:10	31.8	31.8	31.8	77	25.4	0	1	112	0.00	30.098 
22:15	31.9	31.9	31.9	77	25.5	0	1	112	0.00	30.098 
22:20	32.1	32.1	32.1	76	25.4	0	1	112	0.00	30.095 
22:25	31.9	31.9	31.9	76	25.2	0	1	112	0.00	30.092 
22:30	31.9	31.9	31.9	77	25.5	0	2	112	0.00	30.091 
22:35	31.9	31.9	31.9	77	25.5	0	1	112	0.00	30.089 
22:40	31.9	31.9	31.9	77	25.5	0	1	112	0.00	30.087 
22:45	32.1	32.1	32.1	78	26.0	0	1	112	0.00	30.085 
22:50	32.4	32.4	32.4	78	26.3	0	1	112	0.00	30.082 
22:55	32.8	32.8	32.8	78	26.7	0	2	112	0.00	30.080 
23:00	33.1	33.1	33.1	77	26.7	0	1	112	0.00	30.080 
23:05	33.4	33.4	33.4	77	27.0	0	2	135	0.00	30.077 
23:10	33.4	33.4	33.4	77	27.0	0	0	---	0.00	30.076 
23:15	33.2	33.2	33.2	77	26.8	0	0	---	0.00	30.080 
23:20	33.1	33.1	33.1	78	27.0	0	0	---	0.00	30.079 
23:25	32.8	32.8	32.8	78	26.7	0	0	---	0.00	30.079 
23:30	32.8	32.8	32.8	80	27.3	0	0	---	0.00	30.076 
23:35	33.1	33.1	33.1	82	28.2	0	1	135	0.00	30.074 
23:40	34.0	34.0	34.0	81	28.8	0	1	135	0.00	30.071 
23:45	34.9	34.9	34.9	80	29.4	0	1	135	0.00	30.070 
23:50	35.5	35.5	35.5	79	29.6	0	1	135	0.00	30.070 
23:55	35.9	35.9	35.9	79	30.0	0	1	135	0.00	30.067 

CoCoRaHS
IN-AL-39
A2 Web Hosting
Creative Commons License
GoDaddy
search engine by freefind advanced

loaded 2018-11-17 05:44:56 • last modified 2010-11-18 10:43:29
Privacy PolicyDisclaimer
• wx.awcolley.com is powered by PmWiki v.2002016 •
• all content (unless otherwise noted) © 2018 A W Colley